createdAt,value
2018-05-11T00:01:19.659Z,12.60
2018-05-11T00:03:47.212Z,12.60
2018-05-11T00:06:15.523Z,12.50
2018-05-11T00:08:43.694Z,12.60
2018-05-11T00:11:12.750Z,12.50
2018-05-11T00:13:40.294Z,12.50
2018-05-11T00:16:07.807Z,12.60
2018-05-11T00:18:35.328Z,12.60
2018-05-11T00:21:03.763Z,12.60
2018-05-11T00:23:32.610Z,12.50
2018-05-11T00:26:02.290Z,12.50
2018-05-11T00:28:31.105Z,12.50
2018-05-11T00:30:59.402Z,12.50
2018-05-11T00:33:28.189Z,12.50
2018-05-11T00:35:56.924Z,12.50
2018-05-11T00:38:24.463Z,12.50
2018-05-11T00:40:52.059Z,12.40
2018-05-11T00:43:20.349Z,12.40
2018-05-11T00:45:48.652Z,12.40
2018-05-11T00:48:16.210Z,12.30
2018-05-11T00:50:43.758Z,12.40
2018-05-11T00:53:12.661Z,12.40
2018-05-11T00:55:48.973Z,12.30
2018-05-11T00:58:16.499Z,12.40
2018-05-11T01:00:44.043Z,12.40
2018-05-11T01:03:12.246Z,12.40
2018-05-11T01:05:39.786Z,12.40
2018-05-11T01:08:07.321Z,12.40
2018-05-11T01:10:34.846Z,12.40
2018-05-11T01:13:02.403Z,12.40
2018-05-11T01:15:29.939Z,12.40
2018-05-11T01:17:57.481Z,12.40
2018-05-11T01:20:25.003Z,12.30
2018-05-11T01:22:52.522Z,12.40
2018-05-11T01:25:20.083Z,12.40
2018-05-11T01:27:47.711Z,12.40
2018-05-11T01:30:15.239Z,12.40
2018-05-11T01:32:43.638Z,12.40
2018-05-11T01:35:12.200Z,12.30
2018-05-11T01:37:40.497Z,12.30
2018-05-11T01:40:08.083Z,12.30
2018-05-11T01:42:35.641Z,12.40
2018-05-11T01:45:03.178Z,12.40
2018-05-11T01:47:30.714Z,12.40
2018-05-11T01:49:58.231Z,12.40
2018-05-11T01:52:25.771Z,12.40
2018-05-11T01:54:53.290Z,12.40
2018-05-11T01:57:20.833Z,12.40
2018-05-11T01:59:49.164Z,12.30
2018-05-11T02:02:16.728Z,12.30
2018-05-11T02:04:45.060Z,12.30
2018-05-11T02:07:12.649Z,12.30
2018-05-11T02:09:40.205Z,12.30
2018-05-11T02:12:08.209Z,12.30
2018-05-11T02:14:35.734Z,12.20
2018-05-11T02:17:03.305Z,12.20
2018-05-11T02:19:30.859Z,12.20
2018-05-11T02:21:58.363Z,12.30
2018-05-11T02:24:25.878Z,12.20
2018-05-11T02:26:53.826Z,12.30
2018-05-11T02:29:21.343Z,12.30
2018-05-11T02:31:48.878Z,12.30
2018-05-11T02:34:16.597Z,12.30
2018-05-11T02:36:44.128Z,12.30
2018-05-11T02:39:12.408Z,12.30
2018-05-11T02:41:40.713Z,12.40
2018-05-11T02:44:08.253Z,12.30
2018-05-11T02:46:35.938Z,12.30
2018-05-11T02:49:03.468Z,12.30
2018-05-11T02:51:32.951Z,12.20
2018-05-11T02:54:00.538Z,12.20
2018-05-11T02:56:28.668Z,12.30
2018-05-11T02:58:56.199Z,12.20
2018-05-11T03:01:23.718Z,12.20
2018-05-11T03:03:52.040Z,12.20
2018-05-11T03:06:19.569Z,12.20
2018-05-11T03:08:47.144Z,12.10
2018-05-11T03:11:14.696Z,12.10
2018-05-11T03:13:42.229Z,12.10
2018-05-11T03:16:09.754Z,12.10
2018-05-11T03:18:37.394Z,12.20
2018-05-11T03:21:04.840Z,12.20
2018-05-11T03:23:32.367Z,12.20
2018-05-11T03:26:00.702Z,12.20
2018-05-11T03:28:28.232Z,12.20
2018-05-11T03:30:55.785Z,12.20
2018-05-11T03:33:23.283Z,12.10
2018-05-11T03:35:50.811Z,12.10
2018-05-11T03:38:18.408Z,12.10
2018-05-11T03:40:45.932Z,12.10
2018-05-11T03:43:13.487Z,12.20
2018-05-11T03:45:41.007Z,12.20
2018-05-11T03:48:08.564Z,12.20
2018-05-11T03:50:36.850Z,12.20
2018-05-11T03:53:05.149Z,12.20
2018-05-11T03:55:32.680Z,12.20
2018-05-11T03:58:00.222Z,12.10
2018-05-11T04:00:27.808Z,12.10
2018-05-11T04:03:08.398Z,12.10
2018-05-11T04:05:47.675Z,12.10
2018-05-11T04:08:26.991Z,12.10
2018-05-11T04:10:54.539Z,12.20
2018-05-11T04:13:22.064Z,12.20
2018-05-11T04:15:50.520Z,12.20
2018-05-11T04:18:18.048Z,12.20
2018-05-11T04:20:45.721Z,12.20
2018-05-11T04:23:13.961Z,12.20
2018-05-11T04:25:41.976Z,12.20
2018-05-11T04:28:09.515Z,12.20
2018-05-11T04:30:37.046Z,12.20
2018-05-11T04:33:04.570Z,12.20
2018-05-11T04:35:32.882Z,12.30
2018-05-11T04:38:00.435Z,12.30
2018-05-11T04:40:27.982Z,12.40
2018-05-11T04:42:55.532Z,12.40
2018-05-11T04:45:23.188Z,12.40
2018-05-11T04:47:50.674Z,12.30
2018-05-11T04:50:18.982Z,12.20
2018-05-11T04:52:46.552Z,12.30
2018-05-11T04:55:14.098Z,12.40
2018-05-11T04:57:41.619Z,12.50
2018-05-11T05:00:09.140Z,12.60
2018-05-11T05:02:36.688Z,12.60
2018-05-11T05:05:04.202Z,12.60
2018-05-11T05:07:31.860Z,12.60
2018-05-11T05:10:00.716Z,12.60
2018-05-11T05:12:28.305Z,12.60
2018-05-11T05:14:56.601Z,12.60
2018-05-11T05:17:24.132Z,12.60
2018-05-11T05:19:51.689Z,12.70
2018-05-11T05:22:19.258Z,12.70
2018-05-11T05:24:46.798Z,12.60
2018-05-11T05:27:14.357Z,12.60
2018-05-11T05:29:41.960Z,12.60
2018-05-11T05:32:09.498Z,12.70
2018-05-11T05:34:37.014Z,12.70
2018-05-11T05:37:04.590Z,12.70
2018-05-11T05:39:32.889Z,12.50
2018-05-11T05:42:00.442Z,12.50
2018-05-11T05:44:27.986Z,12.60
2018-05-11T05:46:56.388Z,12.80
2018-05-11T05:49:23.905Z,12.80
2018-05-11T05:51:52.094Z,12.80
2018-05-11T05:54:20.620Z,13.00
2018-05-11T05:56:48.164Z,12.90
2018-05-11T05:59:15.684Z,13.00
2018-05-11T06:01:44.200Z,13.20
2018-05-11T06:04:12.079Z,13.10
2018-05-11T06:06:39.842Z,13.10
2018-05-11T06:09:07.437Z,13.00
2018-05-11T06:11:35.093Z,12.80
2018-05-11T06:14:02.674Z,13.00
2018-05-11T06:16:30.214Z,13.00
2018-05-11T06:18:57.768Z,13.10
2018-05-11T06:21:25.925Z,13.10
2018-05-11T06:23:53.566Z,13.00
2018-05-11T06:26:21.191Z,13.00
2018-05-11T06:28:50.758Z,13.20
2018-05-11T06:31:18.323Z,13.20
2018-05-11T06:33:45.854Z,13.30
2018-05-11T06:36:14.438Z,13.50
2018-05-11T06:38:43.090Z,13.60
2018-05-11T06:41:11.414Z,13.40
2018-05-11T06:43:38.950Z,13.40
2018-05-11T06:46:06.529Z,13.70
2018-05-11T06:48:34.098Z,13.90
2018-05-11T06:51:01.741Z,14.00
2018-05-11T06:53:30.571Z,14.20
2018-05-11T06:55:58.880Z,14.40
2018-05-11T06:58:27.235Z,14.70
2018-05-11T07:00:54.836Z,14.70
2018-05-11T07:03:22.412Z,14.70
2018-05-11T07:05:49.961Z,15.00
2018-05-11T07:08:17.507Z,14.90
2018-05-11T07:10:46.645Z,14.10
2018-05-11T07:13:14.192Z,14.20
2018-05-11T07:15:43.894Z,14.00
2018-05-11T07:18:11.458Z,14.00
2018-05-11T07:20:39.987Z,14.20
2018-05-11T07:23:08.383Z,14.20
2018-05-11T07:25:35.959Z,14.20
2018-05-11T07:28:03.543Z,13.80
2018-05-11T07:30:31.193Z,13.90
2018-05-11T07:32:58.761Z,13.90
2018-05-11T07:35:27.912Z,14.40
2018-05-11T07:37:58.057Z,14.60
2018-05-11T07:40:25.609Z,14.50
2018-05-11T07:42:53.205Z,14.50
2018-05-11T07:45:20.738Z,14.50
2018-05-11T07:47:48.393Z,14.70
2018-05-11T07:50:15.919Z,14.80
2018-05-11T07:52:44.461Z,14.40
2018-05-11T07:55:12.029Z,14.60
2018-05-11T07:57:39.601Z,15.00
2018-05-11T08:00:07.163Z,15.20
2018-05-11T08:02:35.526Z,14.90
2018-05-11T08:05:03.069Z,14.90
2018-05-11T08:07:33.127Z,16.10
2018-05-11T08:10:01.453Z,15.80
2018-05-11T08:12:31.250Z,15.80
2018-05-11T08:14:59.663Z,15.60
2018-05-11T08:17:27.199Z,15.50
2018-05-11T08:19:54.754Z,16.10
2018-05-11T08:22:22.306Z,16.50
2018-05-11T08:24:49.838Z,16.80
2018-05-11T08:27:18.166Z,17.20
2018-05-11T08:29:46.925Z,17.20
2018-05-11T08:32:14.475Z,17.10
2018-05-11T08:34:43.317Z,17.40
2018-05-11T08:37:10.869Z,18.00
2018-05-11T08:39:38.403Z,17.90
2018-05-11T08:42:09.639Z,16.30
2018-05-11T08:44:37.179Z,15.90
2018-05-11T08:47:06.418Z,17.20
2018-05-11T08:49:34.716Z,17.40
2018-05-11T08:52:02.286Z,17.30
2018-05-11T08:54:29.827Z,17.30
2018-05-11T08:56:57.679Z,17.40
2018-05-11T08:59:25.228Z,16.70
2018-05-11T09:01:52.758Z,16.60
2018-05-11T09:04:20.346Z,16.20
2018-05-11T09:06:47.892Z,15.90
2018-05-11T09:09:15.459Z,15.60
2018-05-11T09:11:42.972Z,15.80
2018-05-11T09:14:11.272Z,15.20
2018-05-11T09:16:38.850Z,15.20
2018-05-11T09:19:06.433Z,15.50
2018-05-11T09:21:33.990Z,16.00
2018-05-11T09:24:01.542Z,16.10
2018-05-11T09:26:29.068Z,16.00
2018-05-11T09:28:56.586Z,16.10
2018-05-11T09:31:24.147Z,16.30
2018-05-11T09:33:51.726Z,16.10
2018-05-11T09:36:20.034Z,16.30
2018-05-11T09:38:47.592Z,16.30
2018-05-11T09:41:15.135Z,16.50
2018-05-11T09:43:42.671Z,15.90
2018-05-11T09:46:10.236Z,16.10
2018-05-11T09:48:38.568Z,16.20
2018-05-11T09:51:06.192Z,16.20
2018-05-11T09:53:33.769Z,16.00
2018-05-11T09:56:01.362Z,16.00
2018-05-11T09:58:29.731Z,16.20
2018-05-11T10:00:57.272Z,16.20
2018-05-11T10:03:24.809Z,16.60
2018-05-11T10:05:52.333Z,16.80
2018-05-11T10:08:19.875Z,16.30
2018-05-11T10:10:48.935Z,16.80
2018-05-11T10:13:16.490Z,16.60
2018-05-11T10:15:44.043Z,16.90
2018-05-11T10:18:11.591Z,16.40
2018-05-11T10:20:39.932Z,16.90
2018-05-11T10:23:07.538Z,16.90
2018-05-11T10:25:35.081Z,17.20
2018-05-11T10:28:03.404Z,18.20
2018-05-11T10:30:30.981Z,18.20
2018-05-11T10:32:58.507Z,18.60
2018-05-11T10:35:26.046Z,18.20
2018-05-11T10:37:53.582Z,17.60
2018-05-11T10:40:21.920Z,17.40
2018-05-11T10:42:49.492Z,17.40
2018-05-11T10:45:17.190Z,18.00
2018-05-11T10:47:45.526Z,17.90
2018-05-11T10:50:13.044Z,17.90
2018-05-11T10:52:40.655Z,18.50
2018-05-11T10:55:08.208Z,18.40
2018-05-11T10:57:35.786Z,18.90
2018-05-11T11:00:03.874Z,18.80
2018-05-11T11:02:32.172Z,19.30
2018-05-11T11:04:59.681Z,19.30
2018-05-11T11:07:27.212Z,19.00
2018-05-11T11:09:54.760Z,18.90
2018-05-11T11:12:22.306Z,19.50
2018-05-11T11:14:49.847Z,19.80
2018-05-11T11:17:18.146Z,19.80
2018-05-11T11:19:46.454Z,19.80
2018-05-11T11:22:13.999Z,20.00
2018-05-11T11:24:41.546Z,19.10
2018-05-11T11:27:09.064Z,18.90
2018-05-11T11:29:36.608Z,19.30
2018-05-11T11:32:04.154Z,19.90
2018-05-11T11:34:32.957Z,20.10
2018-05-11T11:37:01.268Z,20.80
2018-05-11T11:39:28.843Z,20.70
2018-05-11T11:41:56.608Z,21.30
2018-05-11T11:44:24.190Z,21.80
2018-05-11T11:46:51.749Z,22.50
2018-05-11T11:49:19.284Z,21.60
2018-05-11T11:51:46.818Z,22.40
2018-05-11T11:54:15.129Z,22.60
2018-05-11T11:56:42.674Z,22.60
2018-05-11T11:59:10.448Z,23.10
2018-05-11T12:01:38.005Z,23.00
2018-05-11T12:04:05.565Z,22.60
2018-05-11T12:06:33.090Z,24.20
2018-05-11T12:09:01.487Z,24.80
2018-05-11T12:11:29.058Z,24.80
2018-05-11T12:13:56.581Z,25.20
2018-05-11T12:16:24.906Z,26.30
2018-05-11T12:18:52.411Z,26.30
2018-05-11T12:21:19.966Z,23.10
2018-05-11T12:23:48.287Z,22.50
2018-05-11T12:26:15.958Z,22.50
2018-05-11T12:28:44.204Z,24.50
2018-05-11T12:31:11.762Z,24.50
2018-05-11T12:33:39.277Z,25.00
2018-05-11T12:36:06.882Z,25.20
2018-05-11T12:38:34.480Z,23.60
2018-05-11T12:41:02.087Z,22.10
2018-05-11T12:43:30.838Z,23.80
2018-05-11T12:45:58.383Z,24.30
2018-05-11T12:48:25.951Z,25.20
2018-05-11T12:50:53.497Z,25.20
2018-05-11T12:53:21.062Z,26.00
2018-05-11T12:55:48.587Z,26.10
2018-05-11T12:58:16.140Z,25.10
2018-05-11T13:00:43.675Z,24.90
2018-05-11T13:03:11.228Z,25.00
2018-05-11T13:05:38.777Z,27.30
2018-05-11T13:08:06.330Z,25.50
2018-05-11T13:10:33.870Z,26.30
2018-05-11T13:13:02.240Z,26.60
2018-05-11T13:15:29.793Z,26.40
2018-05-11T13:17:57.462Z,26.90
2018-05-11T13:20:25.152Z,26.00
2018-05-11T13:22:52.776Z,25.90
2018-05-11T13:25:20.386Z,25.90
2018-05-11T13:27:48.705Z,27.20
2018-05-11T13:30:16.311Z,27.20
2018-05-11T13:32:43.818Z,27.00
2018-05-11T13:35:11.355Z,28.50
2018-05-11T13:37:38.895Z,27.60
2018-05-11T13:40:06.998Z,28.00
2018-05-11T13:42:35.417Z,25.30
2018-05-11T13:45:02.940Z,25.30
2018-05-11T13:47:30.492Z,26.40
2018-05-11T13:49:58.767Z,25.00
2018-05-11T13:52:26.316Z,25.00
2018-05-11T13:54:54.615Z,27.00
2018-05-11T13:57:22.149Z,27.00
2018-05-11T13:59:50.660Z,24.80
2018-05-11T14:02:18.214Z,24.80
2018-05-11T14:04:45.768Z,23.30
2018-05-11T14:07:13.328Z,23.00
2018-05-11T14:09:42.086Z,22.80
2018-05-11T14:12:09.638Z,22.60
2018-05-11T14:14:37.215Z,22.70
2018-05-11T14:17:04.760Z,23.00
2018-05-11T14:19:32.310Z,22.50
2018-05-11T14:21:59.865Z,22.30
2018-05-11T14:24:27.501Z,22.60
2018-05-11T14:26:55.047Z,21.90
2018-05-11T14:29:22.568Z,21.70
2018-05-11T14:31:50.873Z,22.20
2018-05-11T14:34:18.398Z,22.20
2018-05-11T14:36:46.700Z,22.30
2018-05-11T14:39:14.231Z,22.50
2018-05-11T14:41:41.904Z,22.30
2018-05-11T14:44:10.234Z,22.00
2018-05-11T14:46:37.794Z,21.90
2018-05-11T14:49:05.336Z,21.90
2018-05-11T14:51:34.858Z,22.00
2018-05-11T14:54:02.457Z,22.10
2018-05-11T14:56:30.792Z,22.90
2018-05-11T14:58:58.322Z,22.90
2018-05-11T15:01:25.864Z,23.00
2018-05-11T15:03:54.189Z,22.50
2018-05-11T15:06:23.117Z,22.40
2018-05-11T15:08:51.433Z,22.00
2018-05-11T15:11:18.969Z,22.00
2018-05-11T15:13:47.262Z,22.00
2018-05-11T15:16:14.800Z,21.90
2018-05-11T15:18:43.099Z,22.30
2018-05-11T15:21:10.646Z,22.20
2018-05-11T15:23:38.171Z,22.20
2018-05-11T15:26:05.684Z,22.20
2018-05-11T15:28:33.225Z,22.30
2018-05-11T15:31:00.800Z,22.20
2018-05-11T15:33:28.345Z,22.00
2018-05-11T15:35:55.855Z,22.30
2018-05-11T15:38:23.381Z,22.10
2018-05-11T15:40:50.934Z,22.40
2018-05-11T15:43:18.464Z,22.30
2018-05-11T15:45:46.804Z,22.70
2018-05-11T15:48:14.363Z,22.80
2018-05-11T15:50:41.901Z,22.80
2018-05-11T15:53:09.454Z,22.70
2018-05-11T15:55:37.006Z,22.80
2018-05-11T15:58:04.588Z,22.60
2018-05-11T16:00:32.155Z,22.50
2018-05-11T16:02:59.679Z,22.10
2018-05-11T16:05:27.421Z,22.20
2018-05-11T16:07:54.966Z,22.10
2018-05-11T16:10:22.544Z,22.00
2018-05-11T16:12:50.243Z,22.10
2018-05-11T16:15:18.482Z,21.80
2018-05-11T16:17:46.086Z,21.80
2018-05-11T16:20:13.604Z,21.90
2018-05-11T16:22:41.968Z,22.00
2018-05-11T16:25:10.264Z,22.10
2018-05-11T16:27:37.864Z,22.10
2018-05-11T16:30:05.377Z,22.10
2018-05-11T16:32:34.672Z,22.10
2018-05-11T16:35:03.063Z,22.00
2018-05-11T16:37:30.602Z,22.00
2018-05-11T16:39:58.192Z,22.10
2018-05-11T16:42:25.757Z,22.10
2018-05-11T16:44:53.319Z,22.20
2018-05-11T16:47:20.843Z,22.10
2018-05-11T16:49:49.149Z,22.10
2018-05-11T16:52:16.698Z,22.10
2018-05-11T16:54:44.215Z,21.90
2018-05-11T16:57:11.805Z,21.80
2018-05-11T16:59:39.329Z,21.90
2018-05-11T17:02:06.929Z,21.90
2018-05-11T17:04:34.499Z,22.10
2018-05-11T17:07:02.101Z,22.10
2018-05-11T17:09:30.396Z,22.00
2018-05-11T17:11:58.685Z,21.80
2018-05-11T17:14:27.272Z,22.10
2018-05-11T17:16:54.788Z,22.10
2018-05-11T17:19:22.317Z,22.30
2018-05-11T17:21:49.840Z,22.30
2018-05-11T17:24:17.369Z,22.30
2018-05-11T17:26:44.919Z,22.20
2018-05-11T17:29:12.450Z,21.90
2018-05-11T17:31:40.002Z,21.60
2018-05-11T17:34:08.597Z,21.50
2018-05-11T17:36:36.277Z,21.50
2018-05-11T17:39:04.715Z,21.40
2018-05-11T17:41:32.308Z,21.20
2018-05-11T17:43:59.810Z,21.20
2018-05-11T17:46:28.136Z,21.10
2018-05-11T17:48:55.716Z,21.10
2018-05-11T17:51:25.038Z,21.00
2018-05-11T17:53:53.345Z,20.90
2018-05-11T17:56:20.949Z,20.80
2018-05-11T17:58:49.490Z,20.80
2018-05-11T18:01:17.050Z,20.80
2018-05-11T18:03:44.606Z,20.60
2018-05-11T18:06:13.391Z,20.60
2018-05-11T18:08:40.972Z,20.40
2018-05-11T18:11:08.519Z,20.40
2018-05-11T18:13:36.183Z,20.30
2018-05-11T18:16:03.725Z,20.20
2018-05-11T18:18:31.268Z,20.20
2018-05-11T18:20:59.606Z,20.00
2018-05-11T18:23:27.157Z,20.00
2018-05-11T18:25:54.729Z,20.00
2018-05-11T18:28:22.356Z,19.90
2018-05-11T18:30:49.957Z,19.80
2018-05-11T18:33:17.528Z,19.80
2018-05-11T18:35:45.109Z,19.70
2018-05-11T18:38:13.505Z,19.60
2018-05-11T18:40:41.382Z,19.60
2018-05-11T18:43:08.944Z,19.60
2018-05-11T18:45:36.602Z,19.50
2018-05-11T18:48:04.151Z,19.40
2018-05-11T18:50:31.656Z,19.30
2018-05-11T18:52:59.362Z,19.30
2018-05-11T18:55:26.801Z,19.30
2018-05-11T18:57:55.328Z,19.10
2018-05-11T19:00:22.865Z,19.10
2018-05-11T19:02:50.461Z,18.90
2018-05-11T19:05:18.055Z,18.90
2018-05-11T19:07:46.360Z,18.70
2018-05-11T19:10:13.885Z,18.70
2018-05-11T19:12:41.844Z,18.60
2018-05-11T19:15:09.473Z,18.60
2018-05-11T19:17:37.065Z,18.50
2018-05-11T19:20:04.652Z,18.40
2018-05-11T19:22:32.949Z,18.30
2018-05-11T19:25:00.509Z,18.30
2018-05-11T19:27:28.619Z,18.30
2018-05-11T19:29:56.665Z,18.20
2018-05-11T19:32:24.259Z,18.10
2018-05-11T19:34:51.793Z,18.00
2018-05-11T19:37:19.364Z,18.00
2018-05-11T19:39:46.911Z,17.90
2018-05-11T19:42:14.496Z,17.90
2018-05-11T19:44:42.040Z,17.80
2018-05-11T19:47:09.602Z,17.70
2018-05-11T19:49:37.198Z,17.70
2018-05-11T19:52:05.530Z,17.60
2018-05-11T19:54:33.246Z,17.50
2018-05-11T19:57:00.805Z,17.40
2018-05-11T19:59:29.145Z,17.30
2018-05-11T20:01:56.707Z,17.30
2018-05-11T20:04:24.265Z,17.30
2018-05-11T20:06:52.087Z,17.20
2018-05-11T20:09:19.628Z,17.20
2018-05-11T20:11:47.202Z,17.10
2018-05-11T20:14:14.792Z,17.00
2018-05-11T20:16:42.320Z,17.00
2018-05-11T20:19:09.887Z,17.00
2018-05-11T20:21:37.436Z,17.00
2018-05-11T20:24:04.976Z,16.90
2018-05-11T20:26:32.528Z,16.80
2018-05-11T20:29:00.904Z,16.70
2018-05-11T20:31:28.463Z,16.70
2018-05-11T20:33:56.811Z,16.50
2018-05-11T20:36:24.384Z,16.50
2018-05-11T20:38:51.985Z,16.40
2018-05-11T20:41:19.595Z,16.30
2018-05-11T20:43:47.118Z,16.30
2018-05-11T20:46:14.712Z,16.30
2018-05-11T20:48:42.247Z,16.30
2018-05-11T20:51:09.882Z,16.20
2018-05-11T20:53:37.444Z,16.20
2018-05-11T20:56:05.016Z,16.20
2018-05-11T20:58:34.239Z,16.10
2018-05-11T21:01:02.903Z,16.20
2018-05-11T21:03:30.505Z,16.10
2018-05-11T21:05:58.034Z,16.10
2018-05-11T21:08:25.574Z,16.00
2018-05-11T21:10:53.160Z,15.90
2018-05-11T21:13:20.657Z,15.90
2018-05-11T21:15:49.079Z,15.70
2018-05-11T21:18:16.605Z,15.60
2018-05-11T21:20:44.934Z,15.60
2018-05-11T21:23:12.492Z,15.60
2018-05-11T21:25:40.048Z,15.60
2018-05-11T21:28:08.381Z,15.60
2018-05-11T21:30:36.744Z,15.60
2018-05-11T21:33:04.300Z,15.60
2018-05-11T21:35:31.826Z,15.60
2018-05-11T21:37:59.364Z,15.60
2018-05-11T21:40:26.894Z,15.70
2018-05-11T21:42:54.537Z,15.70
2018-05-11T21:45:22.076Z,15.60
2018-05-11T21:47:49.619Z,15.70
2018-05-11T21:50:17.164Z,15.60
2018-05-11T21:52:44.715Z,15.50
2018-05-11T21:55:12.239Z,15.40
2018-05-11T21:57:40.525Z,15.30
2018-05-11T22:00:08.864Z,15.20
2018-05-11T22:02:36.382Z,15.20
2018-05-11T22:05:04.045Z,15.10
2018-05-11T22:07:32.658Z,14.90
2018-05-11T22:10:00.216Z,14.90
2018-05-11T22:12:27.772Z,14.80
2018-05-11T22:14:55.301Z,14.80
2018-05-11T22:17:22.842Z,14.60
2018-05-11T22:19:50.366Z,14.50
2018-05-11T22:22:17.924Z,14.40
2018-05-11T22:24:45.465Z,14.40
2018-05-11T22:27:13.765Z,14.30
2018-05-11T22:29:41.309Z,14.30
2018-05-11T22:32:08.852Z,14.30
2018-05-11T22:34:36.392Z,14.20
2018-05-11T22:37:03.947Z,14.20
2018-05-11T22:39:31.507Z,14.20
2018-05-11T22:41:59.125Z,14.10
2018-05-11T22:44:26.593Z,14.10
2018-05-11T22:46:54.904Z,14.00
2018-05-11T22:49:22.479Z,14.00
2018-05-11T22:51:50.010Z,14.00
2018-05-11T22:54:17.529Z,14.00
2018-05-11T22:56:45.072Z,14.00
2018-05-11T22:59:12.594Z,13.90
2018-05-11T23:01:40.163Z,13.90
2018-05-11T23:04:07.710Z,13.80
2018-05-11T23:06:35.468Z,13.80
2018-05-11T23:09:03.011Z,13.70
2018-05-11T23:11:30.540Z,13.60
2018-05-11T23:13:59.332Z,13.50
2018-05-11T23:16:27.646Z,13.30
2018-05-11T23:18:55.207Z,13.30
2018-05-11T23:21:22.764Z,13.40
2018-05-11T23:23:50.308Z,13.40
2018-05-11T23:26:18.580Z,13.40
2018-05-11T23:28:46.894Z,13.40
2018-05-11T23:31:14.447Z,13.30
2018-05-11T23:33:42.030Z,13.30
2018-05-11T23:36:09.552Z,13.40
2018-05-11T23:38:37.091Z,13.30
2018-05-11T23:41:05.387Z,13.30
2018-05-11T23:43:32.914Z,13.30
2018-05-11T23:46:01.251Z,13.40
2018-05-11T23:48:28.805Z,13.30
2018-05-11T23:50:56.353Z,13.30
2018-05-11T23:53:23.887Z,13.20
2018-05-11T23:55:52.198Z,13.20
2018-05-11T23:58:19.749Z,13.10
